Startpagina
METAR-TAF:

METAR-TAF

Vliegvelden :

Luchthaven Ouagadougou Internationaal

Ouagadougou, Burkina Faso

breedte: 12-21N, lengte: 001-31W, hoogte: 316 m

Actueel weer

Dit bericht is 1 uur en het 14 minuten geleden gemaakt, om 20:00 UTC
Wind 4 kt uit het noordwesten
Temperatuur 28°C
Vochtigheid 74%
Druk 1012 hPa
Zicht 10 km of meer
Weinig wolken op 2000 ft

METAR: DFFD 212000Z 32004KT 9999 FEW020 28/23 Q1012 NOSIG

Tijdstip: 21:14 (21:14 UTC)

Verwachting

Dit bericht is 4 uur en het 14 minuten geleden gemaakt, om 17:00 UTC
Verwachting geldig van 21 om 18 UTC tot 22 om 24 UTC
Wind 8 kt uit het westen
Zicht 10 km of meer
Verspreide wolken op 2000 ft
Tijdelijke
van 21 om 18 UTC tot 22 om 02 UTC
Zicht: 4000 m
Verspreide wolken op 2000 ft
Verspreide wolken op 3600 ft, Cumulonimbus.
onweer, regen

TAF: DFFD 211700Z 2118/2224 26008KT 9999 SCT020 TEMPO 2118/2202 4000 TSRA SCT020 SCT036CB

Waarnemingen en weersverwachtingen van meer dan 4000 vliegvelden (METAR en TAF).

De beschikbare stations zijn de gele en rode punten op de kaart.

Ga met uw muis naar het station om de naam te zien.

Klik dan om waarnemingen en weersverwachtingen te zien.

kaart wijzigen: klik op de groene knoppen met een zwart kruis om in te zoomen, op de groene knop met een streepje om uit te zoomen of op de groene pijlen voor aangrenzende kaarten.


METAR-TAF: